Ecokeeper — SVTY — position and weather

sailwx.info

Track history (hours):
 
Tides and Currents Weather Stations Pressure Air Temp Water Temp Dewpoint Dewpoint Depression Visibility Wind Speed Wind Dir Waves Ship Positions

Ecokeeper

Last reported at 2017-Jun-29 16:00 UTC. Time now 2017-Jun-29 16:02 UTC.
Position N 37°52' E 023°29'.

Length 90 m; draft 4.3 m.

Type: Tanker. MMSI: 240689000.

Date/timePositionNaut miles runAvg speedWind from/ knotsBaromVisibWave heightAir tempDewpointWater temp
2017-Jun-29 16:00N 37°52' E 023°29'0 0.1
2017-Jun-29 15:30N 37°52' E 023°29'0 0.1
2017-Jun-29 15:00N 37°52' E 023°29'0 0.1
2017-Jun-29 14:00N 37°52' E 023°29'0 0.0
2017-Jun-29 13:30N 37°52' E 023°29'1 1.5
2017-Jun-29 13:00N 37°52' E 023°29'0 0.6
2017-Jun-29 12:30N 37°52' E 023°29'0 0.0
2017-Jun-29 12:00N 37°52' E 023°29'0 0.0
2017-Jun-29 11:30N 37°52' E 023°29'0 0.0
2017-Jun-29 11:00N 37°52' E 023°29'0 0.0
2017-Jun-29 10:30N 37°52' E 023°29'0 0.0
2017-Jun-29 10:00N 37°51' E 023°29'0 0.0
2017-Jun-29 09:30N 37°51' E 023°29'0 0.0
2017-Jun-29 09:00N 37°51' E 023°29'0 0.0
2017-Jun-29 08:30N 37°51' E 023°29'0 0.0
2017-Jun-29 08:00N 37°51' E 023°29'0 0.0
2017-Jun-29 07:30N 37°51' E 023°29'0 0.0
2017-Jun-29 07:00N 37°51' E 023°29'0 0.0
2017-Jun-29 06:30N 37°51' E 023°29'0 0.0
2017-Jun-29 06:00N 37°51' E 023°29'3 6.9
2017-Jun-29 05:30N 37°54' E 023°32'3 6.8
2017-Jun-29 05:00N 37°57' E 023°34'0 0.0
2017-Jun-28 16:04N 37°57' E 023°34'0 0.1
2017-Jun-28 16:00N 37°57' E 023°34'2 3.4
2017-Jun-28 15:30N 37°57' E 023°36'1 1.4
2017-Jun-28 15:00N 37°57' E 023°37'0 0.0
2017-Jun-28 14:00N 37°57' E 023°37'0 0.0
2017-Jun-28 13:30N 37°57' E 023°37'0 0.0
2017-Jun-28 13:00N 37°57' E 023°37'0 0.0
2017-Jun-28 12:30N 37°57' E 023°37'0 0.0
2017-Jun-28 12:00N 37°57' E 023°37'0 0.0
2017-Jun-28 11:30N 37°57' E 023°37'0 0.0
2017-Jun-28 11:00N 37°57' E 023°37'0 0.0
2017-Jun-28 10:30N 37°57' E 023°37'0 0.0
2017-Jun-28 10:00N 37°57' E 023°37'0 0.0
2017-Jun-28 09:30N 37°57' E 023°37'0 0.0
2017-Jun-28 09:00N 37°57' E 023°37'0 0.0
2017-Jun-28 08:30N 37°57' E 023°37'0 0.0
2017-Jun-28 08:00N 37°57' E 023°37'0 0.0
2017-Jun-28 07:30N 37°57' E 023°37'0 0.0
2017-Jun-28 07:00N 37°57' E 023°37'0 0.0
2017-Jun-28 06:30N 37°57' E 023°37'0 0.0
2017-Jun-28 06:00N 37°57' E 023°37'0 0.0
2017-Jun-28 05:30N 37°57' E 023°37'2 4.7
2017-Jun-28 05:00N 37°57' E 023°34'0 0.0
2017-Jun-27 16:59N 37°57' E 023°34'3 5.7
2017-Jun-27 16:30N 37°60' E 023°33'2 4.2
2017-Jun-27 16:01N 38°01' E 023°32'0 0.0
2017-Jun-27 15:30N 38°01' E 023°32'0 0.0
2017-Jun-27 15:00N 38°01' E 023°32'0 0.0
2017-Jun-27 14:30N 38°01' E 023°32'0 0.0
2017-Jun-27 13:30N 38°01' E 023°32'0 0.1
2017-Jun-27 13:00N 38°01' E 023°32'1 1.0
2017-Jun-27 12:30N 38°01' E 023°32'2 5.0
2017-Jun-27 12:00N 37°59' E 023°33'2 3.8
2017-Jun-27 11:30N 37°57' E 023°34'0 0.1
2017-Jun-27 11:00N 37°57' E 023°34'0 0.0
2017-Jun-27 10:30N 37°57' E 023°34'0 0.0
2017-Jun-27 10:00N 37°57' E 023°34'0 0.0
2017-Jun-26 20:46N 37°57' E 023°34'0 1.2
2017-Jun-26 20:30N 37°57' E 023°34'2 3.5
2017-Jun-26 20:00N 37°55' E 023°34'4 7.9
2017-Jun-26 19:30N 37°52' E 023°32'0 0.0
2017-Jun-26 18:59N 37°52' E 023°32'0 0.1
2017-Jun-26 18:30N 37°52' E 023°32'0 0.2
2017-Jun-26 18:00N 37°52' E 023°32'0 0.2
2017-Jun-26 17:30N 37°52' E 023°32'0 0.1
2017-Jun-26 17:00N 37°52' E 023°32'0 0.0
2017-Jun-26 16:30N 37°52' E 023°32'0 0.1
2017-Jun-26 16:00N 37°52' E 023°32'0 0.1
2017-Jun-26 15:30N 37°52' E 023°32'0 0.1
2017-Jun-26 15:00N 37°52' E 023°32'0 0.1
2017-Jun-26 14:30N 37°52' E 023°32'0 0.1
2017-Jun-26 13:30N 37°52' E 023°32'0 0.1
2017-Jun-26 13:00N 37°52' E 023°32'0 0.1
2017-Jun-26 12:30N 37°52' E 023°32'0 0.1
2017-Jun-26 11:55N 37°52' E 023°32'0 0.0
2017-Jun-26 11:27N 37°52' E 023°32'0 0.0
2017-Jun-26 11:00N 37°52' E 023°32'0 0.0
2017-Jun-26 10:30N 37°52' E 023°32'0 0.0
2017-Jun-26 10:00N 37°52' E 023°32'0 0.0
2017-Jun-26 09:30N 37°52' E 023°32'0 0.0
2017-Jun-26 09:00N 37°52' E 023°32'0 0.1
2017-Jun-26 08:30N 37°52' E 023°32'1 1.3
2017-Jun-26 08:00N 37°52' E 023°32'5 9.8
2017-Jun-26 07:30N 37°57' E 023°35'1 1.7
2017-Jun-26 07:00N 37°57' E 023°34'0 0.0
2017-Jun-26 06:30N 37°57' E 023°34'0 0.0
2017-Jun-26 06:00N 37°57' E 023°34'0 0.0
2017-Jun-26 05:30N 37°57' E 023°34'0 0.0
2017-Jun-25 11:20N 37°57' E 023°34'1 3.1
2017-Jun-25 11:01N 37°56' E 023°35'5 9.0
2017-Jun-25 10:31N 37°52' E 023°32'0 0.3
2017-Jun-25 10:00N 37°53' E 023°32'0 0.0
2017-Jun-25 09:30N 37°53' E 023°32'0 0.1
2017-Jun-25 09:00N 37°52' E 023°32'0 0.1
2017-Jun-25 08:31N 37°52' E 023°32'0 0.1
2017-Jun-25 08:00N 37°52' E 023°32'0 0.0
2017-Jun-25 07:31N 37°52' E 023°32'0 0.1
2017-Jun-25 07:01N 37°52' E 023°32'0 0.0
2017-Jun-25 06:31N 37°52' E 023°32'0 0.1
2017-Jun-25 06:01N 37°52' E 023°32'2 3.6
2017-Jun-25 05:31N 37°54' E 023°33'3 6.3
2017-Jun-25 05:00N 37°57' E 023°34'0 0.0
2017-Jun-23 09:55N 37°57' E 023°34'  
2017-Jun-20 22:13N 37°57' E 023°34'0 0.7
2017-Jun-20 22:01N 37°57' E 023°34'2 4.6
2017-Jun-20 21:30N 37°57' E 023°37'0 0.1
2017-Jun-20 21:00N 37°57' E 023°37'0 0.0
2017-Jun-20 20:30N 37°57' E 023°37'0 0.0
2017-Jun-20 20:00N 37°57' E 023°37'0 0.0
2017-Jun-20 19:30N 37°57' E 023°37'0 0.0
2017-Jun-20 19:00N 37°57' E 023°37'0 0.0
2017-Jun-20 18:30N 37°57' E 023°37'0 0.0
2017-Jun-20 18:00N 37°57' E 023°37'0 0.0
2017-Jun-20 17:30N 37°57' E 023°37'0 0.0
2017-Jun-20 17:00N 37°57' E 023°37'0 0.0
2017-Jun-20 16:30N 37°57' E 023°37'0 0.0
2017-Jun-20 16:00N 37°57' E 023°37'0 0.0
2017-Jun-20 15:30N 37°57' E 023°37'0 0.0
2017-Jun-20 06:38N 37°57' E 023°37'0 2.9
2017-Jun-20 06:30N 37°57' E 023°36'2 4.0
2017-Jun-20 06:00N 37°57' E 023°34'  
Track history (hours):
 
Tides and Currents Weather Stations Pressure Air Temp Water Temp Dewpoint Dewpoint Depression Visibility Wind Speed Wind Dir Waves Ship Positions

Ecokeeper

Last reported at 2017-Jun-29 16:00 UTC. Time now 2017-Jun-29 16:02 UTC.
Position N 37°52' E 023°29'.

Length 90 m; draft 4.3 m.

Type: Tanker. MMSI: 240689000.

Date/timePositionNaut miles runAvg speedWind from/ knotsBaromVisibWave heightAir tempDewpointWater temp
2017-Jun-29 16:00N 37°52' E 023°29'0 0.1
2017-Jun-29 15:30N 37°52' E 023°29'0 0.1
2017-Jun-29 15:00N 37°52' E 023°29'0 0.1
2017-Jun-29 14:00N 37°52' E 023°29'0 0.0
2017-Jun-29 13:30N 37°52' E 023°29'1 1.5
2017-Jun-29 13:00N 37°52' E 023°29'0 0.6
2017-Jun-29 12:30N 37°52' E 023°29'0 0.0
2017-Jun-29 12:00N 37°52' E 023°29'0 0.0
2017-Jun-29 11:30N 37°52' E 023°29'0 0.0
2017-Jun-29 11:00N 37°52' E 023°29'0 0.0
2017-Jun-29 10:30N 37°52' E 023°29'0 0.0
2017-Jun-29 10:00N 37°51' E 023°29'0 0.0
2017-Jun-29 09:30N 37°51' E 023°29'0 0.0
2017-Jun-29 09:00N 37°51' E 023°29'0 0.0
2017-Jun-29 08:30N 37°51' E 023°29'0 0.0
2017-Jun-29 08:00N 37°51' E 023°29'0 0.0
2017-Jun-29 07:30N 37°51' E 023°29'0 0.0
2017-Jun-29 07:00N 37°51' E 023°29'0 0.0
2017-Jun-29 06:30N 37°51' E 023°29'0 0.0
2017-Jun-29 06:00N 37°51' E 023°29'3 6.9
2017-Jun-29 05:30N 37°54' E 023°32'3 6.8
2017-Jun-29 05:00N 37°57' E 023°34'0 0.0
2017-Jun-28 16:04N 37°57' E 023°34'0 0.1
2017-Jun-28 16:00N 37°57' E 023°34'2 3.4
2017-Jun-28 15:30N 37°57' E 023°36'1 1.4
2017-Jun-28 15:00N 37°57' E 023°37'0 0.0
2017-Jun-28 14:00N 37°57' E 023°37'0 0.0
2017-Jun-28 13:30N 37°57' E 023°37'0 0.0
2017-Jun-28 13:00N 37°57' E 023°37'0 0.0
2017-Jun-28 12:30N 37°57' E 023°37'0 0.0
2017-Jun-28 12:00N 37°57' E 023°37'0 0.0
2017-Jun-28 11:30N 37°57' E 023°37'0 0.0
2017-Jun-28 11:00N 37°57' E 023°37'0 0.0
2017-Jun-28 10:30N 37°57' E 023°37'0 0.0
2017-Jun-28 10:00N 37°57' E 023°37'0 0.0
2017-Jun-28 09:30N 37°57' E 023°37'0 0.0
2017-Jun-28 09:00N 37°57' E 023°37'0 0.0
2017-Jun-28 08:30N 37°57' E 023°37'0 0.0
2017-Jun-28 08:00N 37°57' E 023°37'0 0.0
2017-Jun-28 07:30N 37°57' E 023°37'0 0.0
2017-Jun-28 07:00N 37°57' E 023°37'0 0.0
2017-Jun-28 06:30N 37°57' E 023°37'0 0.0
2017-Jun-28 06:00N 37°57' E 023°37'0 0.0
2017-Jun-28 05:30N 37°57' E 023°37'2 4.7
2017-Jun-28 05:00N 37°57' E 023°34'0 0.0
2017-Jun-27 16:59N 37°57' E 023°34'3 5.7
2017-Jun-27 16:30N 37°60' E 023°33'2 4.2
2017-Jun-27 16:01N 38°01' E 023°32'0 0.0
2017-Jun-27 15:30N 38°01' E 023°32'0 0.0
2017-Jun-27 15:00N 38°01' E 023°32'0 0.0
2017-Jun-27 14:30N 38°01' E 023°32'0 0.0
2017-Jun-27 13:30N 38°01' E 023°32'0 0.1
2017-Jun-27 13:00N 38°01' E 023°32'1 1.0
2017-Jun-27 12:30N 38°01' E 023°32'2 5.0
2017-Jun-27 12:00N 37°59' E 023°33'2 3.8
2017-Jun-27 11:30N 37°57' E 023°34'0 0.1
2017-Jun-27 11:00N 37°57' E 023°34'0 0.0
2017-Jun-27 10:30N 37°57' E 023°34'0 0.0
2017-Jun-27 10:00N 37°57' E 023°34'0 0.0
2017-Jun-26 20:46N 37°57' E 023°34'0 1.2
2017-Jun-26 20:30N 37°57' E 023°34'2 3.5
2017-Jun-26 20:00N 37°55' E 023°34'4 7.9
2017-Jun-26 19:30N 37°52' E 023°32'0 0.0
2017-Jun-26 18:59N 37°52' E 023°32'0 0.1
2017-Jun-26 18:30N 37°52' E 023°32'0 0.2
2017-Jun-26 18:00N 37°52' E 023°32'0 0.2
2017-Jun-26 17:30N 37°52' E 023°32'0 0.1
2017-Jun-26 17:00N 37°52' E 023°32'0 0.0
2017-Jun-26 16:30N 37°52' E 023°32'0 0.1
2017-Jun-26 16:00N 37°52' E 023°32'0 0.1
2017-Jun-26 15:30N 37°52' E 023°32'0 0.1
2017-Jun-26 15:00N 37°52' E 023°32'0 0.1
2017-Jun-26 14:30N 37°52' E 023°32'0 0.1
2017-Jun-26 13:30N 37°52' E 023°32'0 0.1
2017-Jun-26 13:00N 37°52' E 023°32'0 0.1
2017-Jun-26 12:30N 37°52' E 023°32'0 0.1
2017-Jun-26 11:55N 37°52' E 023°32'0 0.0
2017-Jun-26 11:27N 37°52' E 023°32'0 0.0
2017-Jun-26 11:00N 37°52' E 023°32'0 0.0
2017-Jun-26 10:30N 37°52' E 023°32'0 0.0
2017-Jun-26 10:00N 37°52' E 023°32'0 0.0
2017-Jun-26 09:30N 37°52' E 023°32'0 0.0
2017-Jun-26 09:00N 37°52' E 023°32'0 0.1
2017-Jun-26 08:30N 37°52' E 023°32'1 1.3
2017-Jun-26 08:00N 37°52' E 023°32'5 9.8
2017-Jun-26 07:30N 37°57' E 023°35'1 1.7
2017-Jun-26 07:00N 37°57' E 023°34'0 0.0
2017-Jun-26 06:30N 37°57' E 023°34'0 0.0
2017-Jun-26 06:00N 37°57' E 023°34'0 0.0
2017-Jun-26 05:30N 37°57' E 023°34'0 0.0
2017-Jun-25 11:20N 37°57' E 023°34'1 3.1
2017-Jun-25 11:01N 37°56' E 023°35'5 9.0
2017-Jun-25 10:31N 37°52' E 023°32'0 0.3
2017-Jun-25 10:00N 37°53' E 023°32'0 0.0
2017-Jun-25 09:30N 37°53' E 023°32'0 0.1
2017-Jun-25 09:00N 37°52' E 023°32'0 0.1
2017-Jun-25 08:31N 37°52' E 023°32'0 0.1
2017-Jun-25 08:00N 37°52' E 023°32'0 0.0
2017-Jun-25 07:31N 37°52' E 023°32'0 0.1
2017-Jun-25 07:01N 37°52' E 023°32'0 0.0
2017-Jun-25 06:31N 37°52' E 023°32'0 0.1
2017-Jun-25 06:01N 37°52' E 023°32'2 3.6
2017-Jun-25 05:31N 37°54' E 023°33'3 6.3
2017-Jun-25 05:00N 37°57' E 023°34'0 0.0
2017-Jun-23 09:55N 37°57' E 023°34'  
2017-Jun-20 22:13N 37°57' E 023°34'0 0.7
2017-Jun-20 22:01N 37°57' E 023°34'2 4.6
2017-Jun-20 21:30N 37°57' E 023°37'0 0.1
2017-Jun-20 21:00N 37°57' E 023°37'0 0.0
2017-Jun-20 20:30N 37°57' E 023°37'0 0.0
2017-Jun-20 20:00N 37°57' E 023°37'0 0.0
2017-Jun-20 19:30N 37°57' E 023°37'0 0.0
2017-Jun-20 19:00N 37°57' E 023°37'0 0.0
2017-Jun-20 18:30N 37°57' E 023°37'0 0.0
2017-Jun-20 18:00N 37°57' E 023°37'0 0.0
2017-Jun-20 17:30N 37°57' E 023°37'0 0.0
2017-Jun-20 17:00N 37°57' E 023°37'0 0.0
2017-Jun-20 16:30N 37°57' E 023°37'0 0.0
2017-Jun-20 16:00N 37°57' E 023°37'0 0.0
2017-Jun-20 15:30N 37°57' E 023°37'0 0.0
2017-Jun-20 06:38N 37°57' E 023°37'0 2.9
2017-Jun-20 06:30N 37°57' E 023°36'2 4.0
2017-Jun-20 06:00N 37°57' E 023°34'  

Dump ship's entire track history